sensor_id;sensor_type;location;lat;lon;timestamp;pressure;altitude;pressure_sealevel;temperature;humidity
27685;BME280;46113;50.130;8.526;2023-03-13T00:04:15;98407.81;;;4.14;76.23
27685;BME280;46113;50.130;8.526;2023-03-13T00:06:42;98409.38;;;4.38;76.10
27685;BME280;46113;50.130;8.526;2023-03-13T00:09:10;98400.47;;;4.23;77.09
27685;BME280;46113;50.130;8.526;2023-03-13T00:11:37;98401.81;;;4.51;75.74
27685;BME280;46113;50.130;8.526;2023-03-13T00:14:05;98395.94;;;4.46;75.67
27685;BME280;46113;50.130;8.526;2023-03-13T00:16:32;98405.25;;;4.13;77.06
27685;BME280;46113;50.130;8.526;2023-03-13T00:19:01;98393.25;;;4.47;76.26
27685;BME280;46113;50.130;8.526;2023-03-13T00:21:28;98386.44;;;4.43;76.56
27685;BME280;46113;50.130;8.526;2023-03-13T00:23:55;98393.25;;;4.28;77.16
27685;BME280;46113;50.130;8.526;2023-03-13T00:26:24;98380.72;;;4.54;76.00
27685;BME280;46113;50.130;8.526;2023-03-13T00:28:52;98378.38;;;4.48;76.00
27685;BME280;46113;50.130;8.526;2023-03-13T00:31:21;98372.50;;;4.62;75.48
27685;BME280;46113;50.130;8.526;2023-03-13T00:33:50;98366.47;;;4.60;75.17
27685;BME280;46113;50.130;8.526;2023-03-13T00:36:22;98367.09;;;4.65;74.63
27685;BME280;46113;50.130;8.526;2023-03-13T00:38:50;98360.06;;;4.48;76.23
27685;BME280;46113;50.130;8.526;2023-03-13T00:41:20;98359.50;;;4.41;75.86
27685;BME280;46113;50.130;8.526;2023-03-13T00:43:47;98361.56;;;3.94;78.34
27685;BME280;46113;50.130;8.526;2023-03-13T00:46:16;98349.84;;;4.22;77.11
27685;BME280;46113;50.130;8.526;2023-03-13T00:48:44;98355.09;;;4.61;73.52
27685;BME280;46113;50.130;8.526;2023-03-13T00:51:12;98347.22;;;4.42;75.03
27685;BME280;46113;50.130;8.526;2023-03-13T00:53:40;98353.09;;;4.66;74.50
27685;BME280;46113;50.130;8.526;2023-03-13T00:56:11;98338.75;;;4.73;74.34
27685;BME280;46113;50.130;8.526;2023-03-13T00:58:39;98339.38;;;4.42;75.69
27685;BME280;46113;50.130;8.526;2023-03-13T01:01:12;98338.44;;;4.62;75.01
27685;BME280;46113;50.130;8.526;2023-03-13T01:03:41;98338.38;;;4.63;75.22
27685;BME280;46113;50.130;8.526;2023-03-13T01:06:12;98336.44;;;4.67;75.01
27685;BME280;46113;50.130;8.526;2023-03-13T01:08:39;98336.13;;;4.56;76.16
27685;BME280;46113;50.130;8.526;2023-03-13T01:11:11;98334.19;;;4.40;77.07
27685;BME280;46113;50.130;8.526;2023-03-13T01:13:39;98328.75;;;4.45;77.07
27685;BME280;46113;50.130;8.526;2023-03-13T01:16:08;98321.97;;;4.40;76.93
27685;BME280;46113;50.130;8.526;2023-03-13T01:18:37;98319.53;;;4.55;75.67
27685;BME280;46113;50.130;8.526;2023-03-13T01:21:05;98310.00;;;4.72;75.31
27685;BME280;46113;50.130;8.526;2023-03-13T01:23:31;98307.19;;;4.57;75.67
27685;BME280;46113;50.130;8.526;2023-03-13T01:25:58;98296.69;;;4.76;74.86
27685;BME280;46113;50.130;8.526;2023-03-13T01:28:26;98291.84;;;4.49;75.62
27685;BME280;46113;50.130;8.526;2023-03-13T01:30:53;98281.81;;;4.40;75.87
27685;BME280;46113;50.130;8.526;2023-03-13T01:33:20;98277.72;;;4.71;74.78
27685;BME280;46113;50.130;8.526;2023-03-13T01:35:46;98272.09;;;4.79;74.31
27685;BME280;46113;50.130;8.526;2023-03-13T01:38:13;98263.91;;;4.67;75.06
27685;BME280;46113;50.130;8.526;2023-03-13T01:40:47;98264.53;;;4.73;75.14
27685;BME280;46113;50.130;8.526;2023-03-13T01:43:21;98262.97;;;4.51;75.28
27685;BME280;46113;50.130;8.526;2023-03-13T01:46:13;98251.81;;;4.47;74.79
27685;BME280;46113;50.130;8.526;2023-03-13T01:49:08;98261.28;;;5.03;71.95
27685;BME280;46113;50.130;8.526;2023-03-13T01:51:57;98257.66;;;5.05;72.10
27685;BME280;46113;50.130;8.526;2023-03-13T01:54:30;98244.44;;;4.91;72.88
27685;BME280;46113;50.130;8.526;2023-03-13T01:57:00;98239.41;;;4.86;73.21
27685;BME280;46113;50.130;8.526;2023-03-13T01:59:37;98232.56;;;5.01;72.70
27685;BME280;46113;50.130;8.526;2023-03-13T02:02:05;98230.78;;;4.84;73.64
27685;BME280;46113;50.130;8.526;2023-03-13T02:04:35;98222.69;;;4.89;72.67
27685;BME280;46113;50.130;8.526;2023-03-13T02:07:11;98219.81;;;5.11;71.88
27685;BME280;46113;50.130;8.526;2023-03-13T02:09:43;98223.38;;;4.92;73.05
27685;BME280;46113;50.130;8.526;2023-03-13T02:12:18;98211.00;;;5.12;73.02
27685;BME280;46113;50.130;8.526;2023-03-13T02:14:49;98216.69;;;4.87;74.27
27685;BME280;46113;50.130;8.526;2023-03-13T02:17:16;98203.78;;;5.00;74.32
27685;BME280;46113;50.130;8.526;2023-03-13T02:19:48;98198.00;;;4.75;75.01
27685;BME280;46113;50.130;8.526;2023-03-13T02:27:35;98195.53;;;4.90;74.38
27685;BME280;46113;50.130;8.526;2023-03-13T02:30:04;98179.63;;;5.11;73.65
27685;BME280;46113;50.130;8.526;2023-03-13T02:32:32;98175.91;;;4.81;73.77
27685;BME280;46113;50.130;8.526;2023-03-13T02:35:20;98171.69;;;5.12;73.41
27685;BME280;46113;50.130;8.526;2023-03-13T02:37:50;98176.00;;;5.13;73.51
27685;BME280;46113;50.130;8.526;2023-03-13T02:40:24;98165.28;;;5.18;73.75
27685;BME280;46113;50.130;8.526;2023-03-13T02:42:55;98160.50;;;5.09;74.40
27685;BME280;46113;50.130;8.526;2023-03-13T02:45:24;98164.91;;;5.08;73.61
27685;BME280;46113;50.130;8.526;2023-03-13T02:47:51;98170.47;;;5.02;74.55
27685;BME280;46113;50.130;8.526;2023-03-13T02:50:18;98163.00;;;5.12;74.43
27685;BME280;46113;50.130;8.526;2023-03-13T02:52:51;98160.47;;;5.26;73.40
27685;BME280;46113;50.130;8.526;2023-03-13T02:55:27;98146.84;;;5.53;71.82
27685;BME280;46113;50.130;8.526;2023-03-13T02:57:54;98137.44;;;5.49;72.89
27685;BME280;46113;50.130;8.526;2023-03-13T03:00:21;98135.94;;;5.27;76.44
27685;BME280;46113;50.130;8.526;2023-03-13T03:02:53;98136.03;;;4.92;79.06
27685;BME280;46113;50.130;8.526;2023-03-13T03:05:21;98139.94;;;5.01;79.03
27685;BME280;46113;50.130;8.526;2023-03-13T03:07:49;98135.97;;;4.93;80.47
27685;BME280;46113;50.130;8.526;2023-03-13T03:10:17;98132.75;;;5.04;80.02
27685;BME280;46113;50.130;8.526;2023-03-13T03:12:44;98123.16;;;4.87;80.95
27685;BME280;46113;50.130;8.526;2023-03-13T03:15:12;98125.72;;;4.89;81.06
27685;BME280;46113;50.130;8.526;2023-03-13T03:17:43;98114.75;;;4.64;83.62
27685;BME280;46113;50.130;8.526;2023-03-13T03:20:10;98120.19;;;4.77;83.24
27685;BME280;46113;50.130;8.526;2023-03-13T03:22:40;98120.53;;;4.87;82.65
27685;BME280;46113;50.130;8.526;2023-03-13T03:25:08;98103.19;;;4.69;84.20
27685;BME280;46113;50.130;8.526;2023-03-13T03:27:35;98102.06;;;4.73;84.50
27685;BME280;46113;50.130;8.526;2023-03-13T03:30:05;98098.94;;;4.66;84.42
27685;BME280;46113;50.130;8.526;2023-03-13T03:32:34;98092.78;;;4.67;85.66
27685;BME280;46113;50.130;8.526;2023-03-13T03:35:01;98098.63;;;4.72;85.07
27685;BME280;46113;50.130;8.526;2023-03-13T03:37:28;98083.84;;;4.71;85.02
27685;BME280;46113;50.130;8.526;2023-03-13T03:39:55;98080.97;;;4.76;84.81
27685;BME280;46113;50.130;8.526;2023-03-13T03:42:22;98081.09;;;4.73;85.38
27685;BME280;46113;50.130;8.526;2023-03-13T03:44:49;98072.56;;;4.69;86.55
27685;BME280;46113;50.130;8.526;2023-03-13T03:47:16;98069.25;;;4.83;86.70
27685;BME280;46113;50.130;8.526;2023-03-13T03:49:46;98061.81;;;4.91;86.12
27685;BME280;46113;50.130;8.526;2023-03-13T03:52:13;98066.03;;;4.94;84.70
27685;BME280;46113;50.130;8.526;2023-03-13T03:54:42;98059.25;;;4.74;88.27
27685;BME280;46113;50.130;8.526;2023-03-13T03:57:08;98067.09;;;4.74;87.48
27685;BME280;46113;50.130;8.526;2023-03-13T03:59:36;98066.50;;;4.85;85.51
27685;BME280;46113;50.130;8.526;2023-03-13T04:02:06;98062.88;;;4.71;86.35
27685;BME280;46113;50.130;8.526;2023-03-13T04:04:34;98061.13;;;4.88;85.82
27685;BME280;46113;50.130;8.526;2023-03-13T04:07:08;98057.34;;;4.93;85.26
27685;BME280;46113;50.130;8.526;2023-03-13T04:09:34;98052.78;;;4.97;85.44
27685;BME280;46113;50.130;8.526;2023-03-13T04:12:03;98051.69;;;5.01;85.41
27685;BME280;46113;50.130;8.526;2023-03-13T04:14:35;98050.50;;;4.91;86.28
27685;BME280;46113;50.130;8.526;2023-03-13T04:17:04;98047.28;;;5.02;85.77
27685;BME280;46113;50.130;8.526;2023-03-13T04:19:31;98041.94;;;5.03;86.77
27685;BME280;46113;50.130;8.526;2023-03-13T04:21:59;98038.16;;;5.09;86.38
27685;BME280;46113;50.130;8.526;2023-03-13T04:24:25;98047.13;;;5.05;86.42
27685;BME280;46113;50.130;8.526;2023-03-13T04:26:54;98044.88;;;4.81;87.04
27685;BME280;46113;50.130;8.526;2023-03-13T04:29:21;98038.41;;;4.88;87.06
27685;BME280;46113;50.130;8.526;2023-03-13T04:32:02;98043.41;;;5.09;84.72
27685;BME280;46113;50.130;8.526;2023-03-13T04:34:55;98039.41;;;5.18;85.06
27685;BME280;46113;50.130;8.526;2023-03-13T04:37:40;98031.63;;;5.16;85.29
27685;BME280;46113;50.130;8.526;2023-03-13T04:40:26;98026.88;;;5.07;86.06
27685;BME280;46113;50.130;8.526;2023-03-13T04:43:19;98031.44;;;4.87;87.27
27685;BME280;46113;50.130;8.526;2023-03-13T04:46:04;98019.13;;;5.22;86.15
27685;BME280;46113;50.130;8.526;2023-03-13T04:48:50;98003.97;;;5.27;86.09
27685;BME280;46113;50.130;8.526;2023-03-13T04:51:28;98004.13;;;5.40;86.04
27685;BME280;46113;50.130;8.526;2023-03-13T04:54:15;97998.47;;;5.31;85.73
27685;BME280;46113;50.130;8.526;2023-03-13T04:56:56;98008.22;;;5.45;85.51
27685;BME280;46113;50.130;8.526;2023-03-13T04:59:52;97989.69;;;5.32;85.64
27685;BME280;46113;50.130;8.526;2023-03-13T05:02:38;98011.84;;;5.43;84.90
27685;BME280;46113;50.130;8.526;2023-03-13T05:05:25;98012.44;;;5.32;86.31
27685;BME280;46113;50.130;8.526;2023-03-13T05:08:21;97991.84;;;5.56;85.95
27685;BME280;46113;50.130;8.526;2023-03-13T05:11:08;97988.00;;;5.78;84.63
27685;BME280;46113;50.130;8.526;2023-03-13T05:13:43;97987.22;;;5.13;87.62
27685;BME280;46113;50.130;8.526;2023-03-13T05:16:23;97980.50;;;5.72;85.52
27685;BME280;46113;50.130;8.526;2023-03-13T05:19:12;97985.34;;;5.64;86.36
27685;BME280;46113;50.130;8.526;2023-03-13T05:21:58;97972.72;;;5.38;86.72
27685;BME280;46113;50.130;8.526;2023-03-13T05:25:03;97999.03;;;5.69;85.63
27685;BME280;46113;50.130;8.526;2023-03-13T05:27:47;97985.84;;;5.38;87.38
27685;BME280;46113;50.130;8.526;2023-03-13T05:30:37;97973.66;;;5.37;87.75
27685;BME280;46113;50.130;8.526;2023-03-13T05:33:22;97984.97;;;5.70;86.45
27685;BME280;46113;50.130;8.526;2023-03-13T05:36:15;97970.66;;;5.76;86.54
27685;BME280;46113;50.130;8.526;2023-03-13T05:39:02;97955.53;;;5.65;87.53
27685;BME280;46113;50.130;8.526;2023-03-13T05:41:48;97953.69;;;5.67;87.92
27685;BME280;46113;50.130;8.526;2023-03-13T05:44:34;97953.09;;;5.76;87.15
27685;BME280;46113;50.130;8.526;2023-03-13T05:47:20;97937.31;;;5.62;86.69
27685;BME280;46113;50.130;8.526;2023-03-13T05:50:06;97946.13;;;5.91;86.79
27685;BME280;46113;50.130;8.526;2023-03-13T05:52:56;97935.63;;;5.91;87.89
27685;BME280;46113;50.130;8.526;2023-03-13T05:55:39;97940.09;;;5.89;87.50
27685;BME280;46113;50.130;8.526;2023-03-13T05:58:26;97954.41;;;6.29;85.89
27685;BME280;46113;50.130;8.526;2023-03-13T06:01:31;97944.25;;;5.93;85.92
27685;BME280;46113;50.130;8.526;2023-03-13T06:04:07;97927.81;;;5.75;88.20
27685;BME280;46113;50.130;8.526;2023-03-13T06:06:36;97946.50;;;5.99;86.45
27685;BME280;46113;50.130;8.526;2023-03-13T06:09:03;97952.97;;;5.94;86.88
27685;BME280;46113;50.130;8.526;2023-03-13T06:11:32;97953.09;;;6.21;86.21
27685;BME280;46113;50.130;8.526;2023-03-13T06:13:58;97958.72;;;6.01;87.47
27685;BME280;46113;50.130;8.526;2023-03-13T06:16:40;97947.28;;;6.31;87.13
27685;BME280;46113;50.130;8.526;2023-03-13T06:19:19;97930.97;;;6.11;86.89
27685;BME280;46113;50.130;8.526;2023-03-13T06:21:48;97929.34;;;6.37;85.60
27685;BME280;46113;50.130;8.526;2023-03-13T06:24:15;97920.16;;;6.01;86.88
27685;BME280;46113;50.130;8.526;2023-03-13T06:26:41;97917.44;;;6.32;85.60
27685;BME280;46113;50.130;8.526;2023-03-13T06:29:09;97905.91;;;6.49;85.46
27685;BME280;46113;50.130;8.526;2023-03-13T06:31:36;97915.94;;;6.28;87.57
27685;BME280;46113;50.130;8.526;2023-03-13T06:34:03;97911.16;;;6.49;85.46
27685;BME280;46113;50.130;8.526;2023-03-13T06:36:30;97901.47;;;6.49;86.73
27685;BME280;46113;50.130;8.526;2023-03-13T06:38:57;97901.78;;;6.45;86.60
27685;BME280;46113;50.130;8.526;2023-03-13T06:41:23;97924.84;;;6.10;88.61
27685;BME280;46113;50.130;8.526;2023-03-13T06:43:50;97887.22;;;6.39;88.10
27685;BME280;46113;50.130;8.526;2023-03-13T06:46:22;97903.25;;;6.63;85.95
27685;BME280;46113;50.130;8.526;2023-03-13T06:48:50;97889.34;;;6.61;86.41
27685;BME280;46113;50.130;8.526;2023-03-13T06:51:19;97899.78;;;6.63;86.65
27685;BME280;46113;50.130;8.526;2023-03-13T06:53:50;97901.19;;;6.69;86.13
27685;BME280;46113;50.130;8.526;2023-03-13T06:56:20;97910.09;;;6.66;85.80
27685;BME280;46113;50.130;8.526;2023-03-13T06:58:50;97904.00;;;6.93;85.13
27685;BME280;46113;50.130;8.526;2023-03-13T11:33:52;97778.22;;;10.96;68.17
27685;BME280;46113;50.130;8.526;2023-03-13T11:36:35;97774.25;;;11.54;65.66
27685;BME280;46113;50.130;8.526;2023-03-13T11:42:06;97770.31;;;10.84;68.64
27685;BME280;46113;50.130;8.526;2023-03-13T11:45:10;97766.28;;;10.13;69.23
27685;BME280;46113;50.130;8.526;2023-03-13T11:50:39;97767.75;;;11.37;65.95
27685;BME280;46113;50.130;8.526;2023-03-13T11:56:06;97773.25;;;11.03;66.63
27685;BME280;46113;50.130;8.526;2023-03-13T12:01:26;97755.31;;;10.73;69.62
27685;BME280;46113;50.130;8.526;2023-03-13T12:07:03;97745.88;;;10.92;67.47
27685;BME280;46113;50.130;8.526;2023-03-13T12:09:39;97739.22;;;10.65;69.08
27685;BME280;46113;50.130;8.526;2023-03-13T12:14:59;97719.19;;;10.84;66.96
27685;BME280;46113;50.130;8.526;2023-03-13T12:17:40;97721.19;;;11.34;66.67
27685;BME280;46113;50.130;8.526;2023-03-13T12:23:20;97712.56;;;10.90;67.38
27685;BME280;46113;50.130;8.526;2023-03-13T12:26:05;97707.88;;;10.93;66.03
27685;BME280;46113;50.130;8.526;2023-03-13T12:31:37;97690.00;;;11.07;67.02
27685;BME280;46113;50.130;8.526;2023-03-13T12:34:26;97682.91;;;11.38;66.55
27685;BME280;46113;50.130;8.526;2023-03-13T12:37:02;97682.66;;;11.83;64.13
27685;BME280;46113;50.130;8.526;2023-03-13T12:39:42;97690.16;;;11.36;64.37
27685;BME280;46113;50.130;8.526;2023-03-13T12:44:56;97685.00;;;10.92;67.01
27685;BME280;46113;50.130;8.526;2023-03-13T12:47:30;97680.75;;;10.80;69.09
27685;BME280;46113;50.130;8.526;2023-03-13T12:52:49;97674.94;;;10.86;68.04
27685;BME280;46113;50.130;8.526;2023-03-13T12:55:27;97662.31;;;11.42;65.63
27685;BME280;46113;50.130;8.526;2023-03-13T13:01:04;97648.59;;;11.68;64.21
27685;BME280;46113;50.130;8.526;2023-03-13T13:07:06;97643.97;;;11.29;65.63
27685;BME280;46113;50.130;8.526;2023-03-13T13:10:02;97630.38;;;11.34;65.28
27685;BME280;46113;50.130;8.526;2023-03-13T13:12:29;97629.63;;;11.73;64.49
27685;BME280;46113;50.130;8.526;2023-03-13T13:15:00;97612.16;;;11.50;67.26
27685;BME280;46113;50.130;8.526;2023-03-13T13:25:42;97597.97;;;10.89;66.20
27685;BME280;46113;50.130;8.526;2023-03-13T13:28:21;97587.44;;;12.11;63.21
27685;BME280;46113;50.130;8.526;2023-03-13T13:30:53;97587.00;;;11.96;62.86
27685;BME280;46113;50.130;8.526;2023-03-13T13:38:40;97562.97;;;11.48;64.91
27685;BME280;46113;50.130;8.526;2023-03-13T13:43:45;97561.41;;;11.35;65.66
27685;BME280;46113;50.130;8.526;2023-03-13T13:46:32;97554.66;;;11.82;64.49
27685;BME280;46113;50.130;8.526;2023-03-13T13:49:12;97541.13;;;11.85;64.43
27685;BME280;46113;50.130;8.526;2023-03-13T13:57:20;97526.09;;;12.05;63.77
27685;BME280;46113;50.130;8.526;2023-03-13T14:00:17;97507.00;;;12.97;62.69
27685;BME280;46113;50.130;8.526;2023-03-13T14:02:54;97500.09;;;13.15;59.61
27685;BME280;46113;50.130;8.526;2023-03-13T14:05:28;97484.59;;;12.44;61.51
27685;BME280;46113;50.130;8.526;2023-03-13T14:08:15;97475.03;;;12.61;62.37
27685;BME280;46113;50.130;8.526;2023-03-13T14:10:53;97473.09;;;12.53;62.98
27685;BME280;46113;50.130;8.526;2023-03-13T14:13:21;97476.28;;;12.95;60.17
27685;BME280;46113;50.130;8.526;2023-03-13T14:15:51;97458.13;;;12.62;60.42
27685;BME280;46113;50.130;8.526;2023-03-13T14:18:23;97441.75;;;12.77;60.97
27685;BME280;46113;50.130;8.526;2023-03-13T14:20:57;97441.53;;;12.60;61.51
27685;BME280;46113;50.130;8.526;2023-03-13T14:23:45;97431.84;;;12.41;62.16
27685;BME280;46113;50.130;8.526;2023-03-13T14:26:16;97424.28;;;12.46;60.49
27685;BME280;46113;50.130;8.526;2023-03-13T14:28:47;97415.00;;;12.32;60.44
27685;BME280;46113;50.130;8.526;2023-03-13T14:31:36;97404.13;;;12.53;59.88
27685;BME280;46113;50.130;8.526;2023-03-13T14:34:11;97407.38;;;12.09;61.01
27685;BME280;46113;50.130;8.526;2023-03-13T14:36:51;97403.34;;;12.43;61.38
27685;BME280;46113;50.130;8.526;2023-03-13T14:42:02;97378.69;;;12.32;61.66
27685;BME280;46113;50.130;8.526;2023-03-13T14:44:31;97374.19;;;12.71;59.96
27685;BME280;46113;50.130;8.526;2023-03-13T14:47:07;97367.72;;;12.55;61.03
27685;BME280;46113;50.130;8.526;2023-03-13T14:49:35;97366.22;;;12.71;60.35
27685;BME280;46113;50.130;8.526;2023-03-13T14:52:22;97354.75;;;12.24;60.62
27685;BME280;46113;50.130;8.526;2023-03-13T15:00:47;97333.16;;;12.09;62.35
27685;BME280;46113;50.130;8.526;2023-03-13T15:05:44;97310.00;;;12.85;59.70
27685;BME280;46113;50.130;8.526;2023-03-13T15:08:20;97306.97;;;12.80;60.49
27685;BME280;46113;50.130;8.526;2023-03-13T15:10:48;97301.03;;;12.50;58.35
27685;BME280;46113;50.130;8.526;2023-03-13T15:15:48;97298.00;;;12.81;59.92
27685;BME280;46113;50.130;8.526;2023-03-13T15:18:22;97292.25;;;12.86;59.77
27685;BME280;46113;50.130;8.526;2023-03-13T15:20:50;97275.66;;;13.02;58.20
27685;BME280;46113;50.130;8.526;2023-03-13T15:23:18;97280.50;;;12.89;58.36
27685;BME280;46113;50.130;8.526;2023-03-13T15:25:46;97263.28;;;12.93;59.44
27685;BME280;46113;50.130;8.526;2023-03-13T15:28:15;97250.69;;;12.58;59.10
27685;BME280;46113;50.130;8.526;2023-03-13T15:30:43;97236.38;;;12.88;58.44
27685;BME280;46113;50.130;8.526;2023-03-13T15:33:15;97230.47;;;12.76;59.74
27685;BME280;46113;50.130;8.526;2023-03-13T15:35:43;97224.53;;;12.27;62.48
27685;BME280;46113;50.130;8.526;2023-03-13T15:38:28;97221.44;;;12.14;61.33
27685;BME280;46113;50.130;8.526;2023-03-13T15:40:55;97202.19;;;12.30;61.21
27685;BME280;46113;50.130;8.526;2023-03-13T15:43:23;97208.63;;;12.27;61.55
27685;BME280;46113;50.130;8.526;2023-03-13T15:45:50;97210.88;;;12.04;61.21
27685;BME280;46113;50.130;8.526;2023-03-13T15:48:22;97213.31;;;12.15;61.45
27685;BME280;46113;50.130;8.526;2023-03-13T15:51:01;97200.22;;;12.14;61.69
27685;BME280;46113;50.130;8.526;2023-03-13T15:53:32;97207.66;;;11.72;62.75
27685;BME280;46113;50.130;8.526;2023-03-13T15:56:04;97243.91;;;12.00;62.43
27685;BME280;46113;50.130;8.526;2023-03-13T15:58:36;97283.31;;;11.85;61.09
27685;BME280;46113;50.130;8.526;2023-03-13T16:01:03;97317.88;;;11.06;62.14
27685;BME280;46113;50.130;8.526;2023-03-13T16:03:30;97385.28;;;11.01;64.38
27685;BME280;46113;50.130;8.526;2023-03-13T16:05:57;97454.31;;;10.05;72.64
27685;BME280;46113;50.130;8.526;2023-03-13T16:08:26;97424.53;;;8.03;79.22
27685;BME280;46113;50.130;8.526;2023-03-13T16:11:02;97395.41;;;7.82;79.94
27685;BME280;46113;50.130;8.526;2023-03-13T16:13:29;97368.81;;;7.62;81.66
27685;BME280;46113;50.130;8.526;2023-03-13T16:15:56;97361.03;;;7.61;82.09
27685;BME280;46113;50.130;8.526;2023-03-13T16:18:24;97357.75;;;7.34;84.05
27685;BME280;46113;50.130;8.526;2023-03-13T16:20:51;97347.47;;;7.54;83.09
27685;BME280;46113;50.130;8.526;2023-03-13T16:23:18;97366.63;;;7.20;82.95
27685;BME280;46113;50.130;8.526;2023-03-13T16:25:46;97380.28;;;7.50;83.86
27685;BME280;46113;50.130;8.526;2023-03-13T16:28:14;97385.66;;;7.60;82.83
27685;BME280;46113;50.130;8.526;2023-03-13T16:30:41;97403.59;;;7.54;82.55
27685;BME280;46113;50.130;8.526;2023-03-13T16:33:12;97387.63;;;7.80;82.07
27685;BME280;46113;50.130;8.526;2023-03-13T16:35:39;97391.94;;;7.81;82.60
27685;BME280;46113;50.130;8.526;2023-03-13T16:38:09;97390.31;;;7.44;83.67
27685;BME280;46113;50.130;8.526;2023-03-13T16:40:36;97337.22;;;7.62;85.17
27685;BME280;46113;50.130;8.526;2023-03-13T16:43:03;97344.25;;;7.50;84.78
27685;BME280;46113;50.130;8.526;2023-03-13T16:45:30;97359.66;;;7.43;86.77
27685;BME280;46113;50.130;8.526;2023-03-13T16:47:56;97361.28;;;7.57;85.94
27685;BME280;46113;50.130;8.526;2023-03-13T16:50:33;97362.38;;;7.89;84.53
27685;BME280;46113;50.130;8.526;2023-03-13T16:53:02;97338.94;;;7.75;84.12
27685;BME280;46113;50.130;8.526;2023-03-13T16:55:29;97314.63;;;7.60;84.71
27685;BME280;46113;50.130;8.526;2023-03-13T16:58:02;97314.13;;;7.43;87.33
27685;BME280;46113;50.130;8.526;2023-03-13T17:00:30;97278.63;;;7.83;85.87
27685;BME280;46113;50.130;8.526;2023-03-13T17:02:57;97286.63;;;7.81;86.19
27685;BME280;46113;50.130;8.526;2023-03-13T17:05:25;97314.28;;;7.76;85.82
27685;BME280;46113;50.130;8.526;2023-03-13T17:07:52;97329.34;;;7.74;86.99
27685;BME280;46113;50.130;8.526;2023-03-13T17:12:48;97349.34;;;7.88;85.98
27685;BME280;46113;50.130;8.526;2023-03-13T17:15:16;97349.09;;;7.91;85.35
27685;BME280;46113;50.130;8.526;2023-03-13T17:17:43;97345.28;;;8.06;85.06
27685;BME280;46113;50.130;8.526;2023-03-13T17:20:18;97347.44;;;8.13;83.84
27685;BME280;46113;50.130;8.526;2023-03-13T17:24:02;97337.03;;;8.11;84.57
27685;BME280;46113;50.130;8.526;2023-03-13T17:26:35;97329.69;;;7.57;87.35
27685;BME280;46113;50.130;8.526;2023-03-13T17:29:03;97336.81;;;7.33;89.90
27685;BME280;46113;50.130;8.526;2023-03-13T17:31:30;97347.47;;;7.07;91.50
27685;BME280;46113;50.130;8.526;2023-03-13T17:34:03;97332.06;;;7.49;88.99
27685;BME280;46113;50.130;8.526;2023-03-13T17:36:31;97334.22;;;7.55;88.61
27685;BME280;46113;50.130;8.526;2023-03-13T17:38:59;97321.22;;;7.65;88.39
27685;BME280;46113;50.130;8.526;2023-03-13T17:41:29;97316.75;;;7.43;89.17
27685;BME280;46113;50.130;8.526;2023-03-13T17:43:56;97307.09;;;7.66;88.49
27685;BME280;46113;50.130;8.526;2023-03-13T17:46:43;97314.34;;;7.04;91.30
27685;BME280;46113;50.130;8.526;2023-03-13T17:49:13;97306.03;;;7.69;88.81
27685;BME280;46113;50.130;8.526;2023-03-13T17:51:41;97295.97;;;7.63;88.60
27685;BME280;46113;50.130;8.526;2023-03-13T17:54:10;97306.41;;;7.17;91.13
27685;BME280;46113;50.130;8.526;2023-03-13T17:56:40;97299.50;;;7.39;90.34
27685;BME280;46113;50.130;8.526;2023-03-13T17:59:16;97296.13;;;7.25;90.59
27685;BME280;46113;50.130;8.526;2023-03-13T18:01:43;97279.44;;;7.38;90.17
27685;BME280;46113;50.130;8.526;2023-03-13T18:04:10;97275.84;;;7.62;89.29
27685;BME280;46113;50.130;8.526;2023-03-13T18:06:45;97255.16;;;7.68;88.60
27685;BME280;46113;50.130;8.526;2023-03-13T18:09:18;97264.88;;;7.68;88.43
27685;BME280;46113;50.130;8.526;2023-03-13T18:11:47;97252.91;;;7.52;89.04
27685;BME280;46113;50.130;8.526;2023-03-13T18:14:14;97249.78;;;7.58;88.51
27685;BME280;46113;50.130;8.526;2023-03-13T18:16:43;97220.38;;;7.42;89.08
27685;BME280;46113;50.130;8.526;2023-03-13T18:21:48;97228.38;;;7.63;88.18
27685;BME280;46113;50.130;8.526;2023-03-13T18:24:15;97240.44;;;7.43;89.41
27685;BME280;46113;50.130;8.526;2023-03-13T18:26:44;97231.59;;;7.67;88.10
27685;BME280;46113;50.130;8.526;2023-03-13T18:29:20;97234.22;;;7.33;88.67
27685;BME280;46113;50.130;8.526;2023-03-13T18:31:53;97238.31;;;7.48;89.28
27685;BME280;46113;50.130;8.526;2023-03-13T18:34:22;97228.13;;;7.32;88.79
27685;BME280;46113;50.130;8.526;2023-03-13T18:36:49;97195.81;;;7.64;87.48
27685;BME280;46113;50.130;8.526;2023-03-13T18:39:16;97170.72;;;7.49;88.42
27685;BME280;46113;50.130;8.526;2023-03-13T18:41:48;97193.31;;;7.74;87.46
27685;BME280;46113;50.130;8.526;2023-03-13T18:44:14;97215.09;;;7.88;86.13
27685;BME280;46113;50.130;8.526;2023-03-13T18:46:44;97220.81;;;7.93;86.45
27685;BME280;46113;50.130;8.526;2023-03-13T18:49:13;97212.94;;;7.58;87.33
27685;BME280;46113;50.130;8.526;2023-03-13T18:51:48;97214.38;;;7.40;88.46
27685;BME280;46113;50.130;8.526;2023-03-13T18:54:17;97207.56;;;7.71;87.70
27685;BME280;46113;50.130;8.526;2023-03-13T18:56:44;97191.88;;;7.70;86.83
27685;BME280;46113;50.130;8.526;2023-03-13T18:59:20;97196.31;;;7.58;87.56
27685;BME280;46113;50.130;8.526;2023-03-13T19:01:47;97194.06;;;7.53;88.61
27685;BME280;46113;50.130;8.526;2023-03-13T19:04:15;97207.69;;;7.47;88.98
27685;BME280;46113;50.130;8.526;2023-03-13T19:06:42;97212.69;;;7.62;88.15
27685;BME280;46113;50.130;8.526;2023-03-13T19:09:18;97215.00;;;7.55;89.44
27685;BME280;46113;50.130;8.526;2023-03-13T19:12:06;97212.34;;;7.66;88.44
27685;BME280;46113;50.130;8.526;2023-03-13T19:14:33;97205.41;;;7.77;88.39
27685;BME280;46113;50.130;8.526;2023-03-13T19:16:59;97204.34;;;7.68;88.88
27685;BME280;46113;50.130;8.526;2023-03-13T19:19:26;97216.72;;;8.00;87.51
27685;BME280;46113;50.130;8.526;2023-03-13T19:21:53;97214.09;;;8.00;87.68
27685;BME280;46113;50.130;8.526;2023-03-13T19:24:23;97213.59;;;8.06;86.29
27685;BME280;46113;50.130;8.526;2023-03-13T19:26:53;97209.31;;;8.05;87.10
27685;BME280;46113;50.130;8.526;2023-03-13T19:29:26;97202.09;;;8.07;87.67
27685;BME280;46113;50.130;8.526;2023-03-13T19:31:53;97220.84;;;7.70;90.01
27685;BME280;46113;50.130;8.526;2023-03-13T19:34:20;97251.56;;;8.04;88.06